<?xml version="1.0" encoding="UTF-8" standalone="no" ?>
<gpx xmlns="http://www.topografix.com/GPX/1/1" xmlns:xsi="http://www.w3.org/2001/XMLSchema-instance" xsi:schemaLocation="http://www.topografix.com/GPX/1/1 http://www.topografix.com/GPX/1/1/gpx.xsd" version="1.1" creator="VisuGPX - https://www.visugpx.com">
  <metadata>
    <name>Montgesoye - Vuillafans</name>
    <desc><![CDATA[Route created on plotaroute.com]]></desc>
  </metadata>
  <trk>
    <name><![CDATA[Montgesoye - Vuillafans]]></name>
    <trkseg>
      <trkpt lat="47.06755" lon="6.20523">
        <ele>347</ele>
        <time>2022-06-05T00:00:00Z</time>
      </trkpt>
      <trkpt lat="47.06761" lon="6.20507">
        <ele>347</ele>
        <time>2022-06-05T00:00:10Z</time>
      </trkpt>
      <trkpt lat="47.06767" lon="6.20485">
        <ele>347</ele>
        <time>2022-06-05T00:00:23Z</time>
      </trkpt>
      <trkpt lat="47.06767" lon="6.20474">
        <ele>348</ele>
        <time>2022-06-05T00:00:29Z</time>
      </trkpt>
      <trkpt lat="47.06766" lon="6.20469">
        <ele>348</ele>
        <time>2022-06-05T00:00:32Z</time>
      </trkpt>
      <trkpt lat="47.0676" lon="6.20457">
        <ele>348</ele>
        <time>2022-06-05T00:00:40Z</time>
      </trkpt>
      <trkpt lat="47.06751" lon="6.20443">
        <ele>349</ele>
        <time>2022-06-05T00:00:50Z</time>
      </trkpt>
      <trkpt lat="47.0674" lon="6.20428">
        <ele>350</ele>
        <time>2022-06-05T00:01:02Z</time>
      </trkpt>
      <trkpt lat="47.06733" lon="6.20416">
        <ele>351</ele>
        <time>2022-06-05T00:01:11Z</time>
      </trkpt>
      <trkpt lat="47.06728" lon="6.20404">
        <ele>352</ele>
        <time>2022-06-05T00:01:19Z</time>
      </trkpt>
      <trkpt lat="47.06724" lon="6.20386">
        <ele>353</ele>
        <time>2022-06-05T00:01:29Z</time>
      </trkpt>
      <trkpt lat="47.0672" lon="6.20365">
        <ele>354</ele>
        <time>2022-06-05T00:01:41Z</time>
      </trkpt>
      <trkpt lat="47.06717" lon="6.20345">
        <ele>355</ele>
        <time>2022-06-05T00:01:52Z</time>
      </trkpt>
      <trkpt lat="47.06713" lon="6.20327">
        <ele>356</ele>
        <time>2022-06-05T00:02:02Z</time>
      </trkpt>
      <trkpt lat="47.0671" lon="6.20314">
        <ele>356</ele>
        <time>2022-06-05T00:02:10Z</time>
      </trkpt>
      <trkpt lat="47.06706" lon="6.20302">
        <ele>356</ele>
        <time>2022-06-05T00:02:17Z</time>
      </trkpt>
      <trkpt lat="47.06703" lon="6.20291">
        <ele>356</ele>
        <time>2022-06-05T00:02:24Z</time>
      </trkpt>
      <trkpt lat="47.067" lon="6.20278">
        <ele>357</ele>
        <time>2022-06-05T00:02:31Z</time>
      </trkpt>
      <trkpt lat="47.06698" lon="6.20264">
        <ele>357</ele>
        <time>2022-06-05T00:02:39Z</time>
      </trkpt>
      <trkpt lat="47.06697" lon="6.20245">
        <ele>357</ele>
        <time>2022-06-05T00:02:49Z</time>
      </trkpt>
      <trkpt lat="47.06697" lon="6.20181">
        <ele>357</ele>
        <time>2022-06-05T00:03:24Z</time>
      </trkpt>
      <trkpt lat="47.06702" lon="6.20154">
        <ele>357</ele>
        <time>2022-06-05T00:03:40Z</time>
      </trkpt>
      <trkpt lat="47.06702" lon="6.20147">
        <ele>358</ele>
        <time>2022-06-05T00:03:43Z</time>
      </trkpt>
      <trkpt lat="47.06698" lon="6.20131">
        <ele>358</ele>
        <time>2022-06-05T00:03:53Z</time>
      </trkpt>
      <trkpt lat="47.06693" lon="6.20116">
        <ele>359</ele>
        <time>2022-06-05T00:04:02Z</time>
      </trkpt>
      <trkpt lat="47.06685" lon="6.20098">
        <ele>359</ele>
        <time>2022-06-05T00:04:14Z</time>
      </trkpt>
      <trkpt lat="47.0665" lon="6.20035">
        <ele>361</ele>
        <time>2022-06-05T00:04:58Z</time>
      </trkpt>
      <trkpt lat="47.06633" lon="6.20007">
        <ele>361</ele>
        <time>2022-06-05T00:05:19Z</time>
      </trkpt>
      <trkpt lat="47.06609" lon="6.19963">
        <ele>366</ele>
        <time>2022-06-05T00:05:49Z</time>
      </trkpt>
      <trkpt lat="47.06575" lon="6.19903">
        <ele>368</ele>
        <time>2022-06-05T00:06:32Z</time>
      </trkpt>
      <trkpt lat="47.06544" lon="6.19843">
        <ele>371</ele>
        <time>2022-06-05T00:07:13Z</time>
      </trkpt>
      <trkpt lat="47.06515" lon="6.19785">
        <ele>374</ele>
        <time>2022-06-05T00:07:52Z</time>
      </trkpt>
      <trkpt lat="47.06504" lon="6.19769">
        <ele>373</ele>
        <time>2022-06-05T00:08:05Z</time>
      </trkpt>
      <trkpt lat="47.06496" lon="6.19759">
        <ele>373</ele>
        <time>2022-06-05T00:08:13Z</time>
      </trkpt>
      <trkpt lat="47.06487" lon="6.1975">
        <ele>376</ele>
        <time>2022-06-05T00:08:22Z</time>
      </trkpt>
      <trkpt lat="47.0648" lon="6.19738">
        <ele>379</ele>
        <time>2022-06-05T00:08:30Z</time>
      </trkpt>
      <trkpt lat="47.06465" lon="6.19705">
        <ele>384</ele>
        <time>2022-06-05T00:08:52Z</time>
      </trkpt>
      <trkpt lat="47.06454" lon="6.19685">
        <ele>385</ele>
        <time>2022-06-05T00:09:06Z</time>
      </trkpt>
      <trkpt lat="47.06448" lon="6.19672">
        <ele>385</ele>
        <time>2022-06-05T00:09:15Z</time>
      </trkpt>
      <trkpt lat="47.06441" lon="6.19656">
        <ele>385</ele>
        <time>2022-06-05T00:09:25Z</time>
      </trkpt>
      <trkpt lat="47.06435" lon="6.19639">
        <ele>385</ele>
        <time>2022-06-05T00:09:36Z</time>
      </trkpt>
      <trkpt lat="47.06429" lon="6.19626">
        <ele>384</ele>
        <time>2022-06-05T00:09:44Z</time>
      </trkpt>
      <trkpt lat="47.06423" lon="6.19609">
        <ele>383</ele>
        <time>2022-06-05T00:09:55Z</time>
      </trkpt>
      <trkpt lat="47.06415" lon="6.1959">
        <ele>381</ele>
        <time>2022-06-05T00:10:07Z</time>
      </trkpt>
      <trkpt lat="47.06411" lon="6.19583">
        <ele>382</ele>
        <time>2022-06-05T00:10:12Z</time>
      </trkpt>
      <trkpt lat="47.06404" lon="6.19573">
        <ele>384</ele>
        <time>2022-06-05T00:10:20Z</time>
      </trkpt>
      <trkpt lat="47.06391" lon="6.19551">
        <ele>388</ele>
        <time>2022-06-05T00:10:36Z</time>
      </trkpt>
      <trkpt lat="47.06385" lon="6.1954">
        <ele>389</ele>
        <time>2022-06-05T00:10:43Z</time>
      </trkpt>
      <trkpt lat="47.06376" lon="6.19521">
        <ele>390</ele>
        <time>2022-06-05T00:10:56Z</time>
      </trkpt>
      <trkpt lat="47.06371" lon="6.19513">
        <ele>389</ele>
        <time>2022-06-05T00:11:02Z</time>
      </trkpt>
      <trkpt lat="47.06358" lon="6.19487">
        <ele>388</ele>
        <time>2022-06-05T00:11:19Z</time>
      </trkpt>
      <trkpt lat="47.0635" lon="6.19473">
        <ele>387</ele>
        <time>2022-06-05T00:11:29Z</time>
      </trkpt>
      <trkpt lat="47.06342" lon="6.19455">
        <ele>386</ele>
        <time>2022-06-05T00:11:41Z</time>
      </trkpt>
      <trkpt lat="47.06336" lon="6.1944">
        <ele>384</ele>
        <time>2022-06-05T00:11:51Z</time>
      </trkpt>
      <trkpt lat="47.06331" lon="6.19426">
        <ele>383</ele>
        <time>2022-06-05T00:11:59Z</time>
      </trkpt>
      <trkpt lat="47.06323" lon="6.19398">
        <ele>387</ele>
        <time>2022-06-05T00:12:16Z</time>
      </trkpt>
      <trkpt lat="47.06316" lon="6.19376">
        <ele>390</ele>
        <time>2022-06-05T00:12:29Z</time>
      </trkpt>
      <trkpt lat="47.06312" lon="6.19368">
        <ele>391</ele>
        <time>2022-06-05T00:12:34Z</time>
      </trkpt>
      <trkpt lat="47.06307" lon="6.1936">
        <ele>392</ele>
        <time>2022-06-05T00:12:40Z</time>
      </trkpt>
      <trkpt lat="47.06302" lon="6.19351">
        <ele>392</ele>
        <time>2022-06-05T00:12:47Z</time>
      </trkpt>
      <trkpt lat="47.06296" lon="6.19339">
        <ele>392</ele>
        <time>2022-06-05T00:12:55Z</time>
      </trkpt>
      <trkpt lat="47.06283" lon="6.19311">
        <ele>393</ele>
        <time>2022-06-05T00:13:13Z</time>
      </trkpt>
      <trkpt lat="47.06279" lon="6.19303">
        <ele>393</ele>
        <time>2022-06-05T00:13:19Z</time>
      </trkpt>
      <trkpt lat="47.06275" lon="6.19299">
        <ele>392</ele>
        <time>2022-06-05T00:13:23Z</time>
      </trkpt>
      <trkpt lat="47.06258" lon="6.1928">
        <ele>388</ele>
        <time>2022-06-05T00:13:40Z</time>
      </trkpt>
      <trkpt lat="47.06239" lon="6.19261">
        <ele>387</ele>
        <time>2022-06-05T00:13:58Z</time>
      </trkpt>
      <trkpt lat="47.06232" lon="6.19252">
        <ele>387</ele>
        <time>2022-06-05T00:14:06Z</time>
      </trkpt>
      <trkpt lat="47.06222" lon="6.19241">
        <ele>390</ele>
        <time>2022-06-05T00:14:16Z</time>
      </trkpt>
      <trkpt lat="47.06209" lon="6.19219">
        <ele>393</ele>
        <time>2022-06-05T00:14:32Z</time>
      </trkpt>
      <trkpt lat="47.06192" lon="6.19196">
        <ele>393</ele>
        <time>2022-06-05T00:14:50Z</time>
      </trkpt>
      <trkpt lat="47.06183" lon="6.19188">
        <ele>391</ele>
        <time>2022-06-05T00:14:59Z</time>
      </trkpt>
      <trkpt lat="47.06175" lon="6.19182">
        <ele>390</ele>
        <time>2022-06-05T00:15:06Z</time>
      </trkpt>
      <trkpt lat="47.06156" lon="6.19165">
        <ele>388</ele>
        <time>2022-06-05T00:15:24Z</time>
      </trkpt>
      <trkpt lat="47.06144" lon="6.19158">
        <ele>393</ele>
        <time>2022-06-05T00:15:34Z</time>
      </trkpt>
      <trkpt lat="47.06133" lon="6.19151">
        <ele>396</ele>
        <time>2022-06-05T00:15:44Z</time>
      </trkpt>
      <trkpt lat="47.06109" lon="6.19133">
        <ele>401</ele>
        <time>2022-06-05T00:16:05Z</time>
      </trkpt>
      <trkpt lat="47.06097" lon="6.19125">
        <ele>401</ele>
        <time>2022-06-05T00:16:16Z</time>
      </trkpt>
      <trkpt lat="47.06085" lon="6.1911">
        <ele>401</ele>
        <time>2022-06-05T00:16:28Z</time>
      </trkpt>
      <trkpt lat="47.06054" lon="6.1909">
        <ele>400</ele>
        <time>2022-06-05T00:16:55Z</time>
      </trkpt>
      <trkpt lat="47.0601" lon="6.19067">
        <ele>400</ele>
        <time>2022-06-05T00:17:33Z</time>
      </trkpt>
      <trkpt lat="47.05976" lon="6.19051">
        <ele>407</ele>
        <time>2022-06-05T00:18:02Z</time>
      </trkpt>
      <trkpt lat="47.0594" lon="6.19011">
        <ele>410</ele>
        <time>2022-06-05T00:18:38Z</time>
      </trkpt>
      <trkpt lat="47.05928" lon="6.18977">
        <ele>411</ele>
        <time>2022-06-05T00:18:59Z</time>
      </trkpt>
      <trkpt lat="47.05907" lon="6.18942">
        <ele>413</ele>
        <time>2022-06-05T00:19:24Z</time>
      </trkpt>
      <trkpt lat="47.05892" lon="6.18914">
        <ele>414</ele>
        <time>2022-06-05T00:19:44Z</time>
      </trkpt>
      <trkpt lat="47.05865" lon="6.18887">
        <ele>415</ele>
        <time>2022-06-05T00:20:10Z</time>
      </trkpt>
      <trkpt lat="47.05846" lon="6.18855">
        <ele>413</ele>
        <time>2022-06-05T00:20:33Z</time>
      </trkpt>
      <trkpt lat="47.05814" lon="6.18809">
        <ele>417</ele>
        <time>2022-06-05T00:21:09Z</time>
      </trkpt>
      <trkpt lat="47.05794" lon="6.18759">
        <ele>422</ele>
        <time>2022-06-05T00:21:40Z</time>
      </trkpt>
      <trkpt lat="47.05766" lon="6.18721">
        <ele>418</ele>
        <time>2022-06-05T00:22:11Z</time>
      </trkpt>
      <trkpt lat="47.05671" lon="6.18631">
        <ele>417</ele>
        <time>2022-06-05T00:23:42Z</time>
      </trkpt>
      <trkpt lat="47.05644" lon="6.18621">
        <ele>420</ele>
        <time>2022-06-05T00:24:04Z</time>
      </trkpt>
      <trkpt lat="47.05626" lon="6.18635">
        <ele>422</ele>
        <time>2022-06-05T00:24:20Z</time>
      </trkpt>
      <trkpt lat="47.05607" lon="6.18631">
        <ele>424</ele>
        <time>2022-06-05T00:24:36Z</time>
      </trkpt>
      <trkpt lat="47.05599" lon="6.18626">
        <ele>425</ele>
        <time>2022-06-05T00:24:43Z</time>
      </trkpt>
      <trkpt lat="47.05579" lon="6.18629">
        <ele>428</ele>
        <time>2022-06-05T00:24:59Z</time>
      </trkpt>
      <trkpt lat="47.05559" lon="6.18622">
        <ele>432</ele>
        <time>2022-06-05T00:25:15Z</time>
      </trkpt>
      <trkpt lat="47.05543" lon="6.18619">
        <ele>436</ele>
        <time>2022-06-05T00:25:28Z</time>
      </trkpt>
      <trkpt lat="47.05511" lon="6.18628">
        <ele>444</ele>
        <time>2022-06-05T00:25:54Z</time>
      </trkpt>
      <trkpt lat="47.05543" lon="6.18619">
        <ele>436</ele>
        <time>2022-06-05T00:26:20Z</time>
      </trkpt>
      <trkpt lat="47.05559" lon="6.18622">
        <ele>432</ele>
        <time>2022-06-05T00:26:33Z</time>
      </trkpt>
      <trkpt lat="47.05579" lon="6.18629">
        <ele>428</ele>
        <time>2022-06-05T00:26:50Z</time>
      </trkpt>
      <trkpt lat="47.05599" lon="6.18626">
        <ele>425</ele>
        <time>2022-06-05T00:27:06Z</time>
      </trkpt>
      <trkpt lat="47.05607" lon="6.18631">
        <ele>424</ele>
        <time>2022-06-05T00:27:13Z</time>
      </trkpt>
      <trkpt lat="47.05577" lon="6.18642">
        <ele>429</ele>
        <time>2022-06-05T00:27:38Z</time>
      </trkpt>
      <trkpt lat="47.0553" lon="6.18665">
        <ele>441</ele>
        <time>2022-06-05T00:28:17Z</time>
      </trkpt>
      <trkpt lat="47.05465" lon="6.18705">
        <ele>470</ele>
        <time>2022-06-05T00:29:14Z</time>
      </trkpt>
      <trkpt lat="47.05409" lon="6.18694">
        <ele>478</ele>
        <time>2022-06-05T00:29:59Z</time>
      </trkpt>
      <trkpt lat="47.05367" lon="6.18679">
        <ele>486</ele>
        <time>2022-06-05T00:30:34Z</time>
      </trkpt>
      <trkpt lat="47.05316" lon="6.18649">
        <ele>503</ele>
        <time>2022-06-05T00:31:18Z</time>
      </trkpt>
      <trkpt lat="47.0527" lon="6.18629">
        <ele>524</ele>
        <time>2022-06-05T00:31:56Z</time>
      </trkpt>
      <trkpt lat="47.05245" lon="6.18609">
        <ele>534</ele>
        <time>2022-06-05T00:32:19Z</time>
      </trkpt>
      <trkpt lat="47.05221" lon="6.18601">
        <ele>543</ele>
        <time>2022-06-05T00:32:39Z</time>
      </trkpt>
      <trkpt lat="47.05208" lon="6.18621">
        <ele>552</ele>
        <time>2022-06-05T00:32:54Z</time>
      </trkpt>
      <trkpt lat="47.05213" lon="6.18655">
        <ele>554</ele>
        <time>2022-06-05T00:33:13Z</time>
      </trkpt>
      <trkpt lat="47.05236" lon="6.18687">
        <ele>546</ele>
        <time>2022-06-05T00:33:38Z</time>
      </trkpt>
      <trkpt lat="47.05265" lon="6.18726">
        <ele>539</ele>
        <time>2022-06-05T00:34:10Z</time>
      </trkpt>
      <trkpt lat="47.05281" lon="6.18762">
        <ele>542</ele>
        <time>2022-06-05T00:34:33Z</time>
      </trkpt>
      <trkpt lat="47.05302" lon="6.18803">
        <ele>547</ele>
        <time>2022-06-05T00:35:01Z</time>
      </trkpt>
      <trkpt lat="47.0534" lon="6.18823">
        <ele>543</ele>
        <time>2022-06-05T00:35:34Z</time>
      </trkpt>
      <trkpt lat="47.0539" lon="6.18838">
        <ele>537</ele>
        <time>2022-06-05T00:36:15Z</time>
      </trkpt>
      <trkpt lat="47.05404" lon="6.18853">
        <ele>538</ele>
        <time>2022-06-05T00:36:28Z</time>
      </trkpt>
      <trkpt lat="47.05455" lon="6.18861">
        <ele>529</ele>
        <time>2022-06-05T00:37:10Z</time>
      </trkpt>
      <trkpt lat="47.05476" lon="6.18894">
        <ele>534</ele>
        <time>2022-06-05T00:37:34Z</time>
      </trkpt>
      <trkpt lat="47.05485" lon="6.18954">
        <ele>547</ele>
        <time>2022-06-05T00:38:08Z</time>
      </trkpt>
      <trkpt lat="47.05516" lon="6.19005">
        <ele>549</ele>
        <time>2022-06-05T00:38:45Z</time>
      </trkpt>
      <trkpt lat="47.05532" lon="6.19047">
        <ele>553</ele>
        <time>2022-06-05T00:39:11Z</time>
      </trkpt>
      <trkpt lat="47.05538" lon="6.19112">
        <ele>567</ele>
        <time>2022-06-05T00:39:47Z</time>
      </trkpt>
      <trkpt lat="47.05573" lon="6.19136">
        <ele>558</ele>
        <time>2022-06-05T00:40:18Z</time>
      </trkpt>
      <trkpt lat="47.05598" lon="6.19154">
        <ele>555</ele>
        <time>2022-06-05T00:40:41Z</time>
      </trkpt>
      <trkpt lat="47.05621" lon="6.19168">
        <ele>554</ele>
        <time>2022-06-05T00:41:00Z</time>
      </trkpt>
      <trkpt lat="47.05633" lon="6.1919">
        <ele>560</ele>
        <time>2022-06-05T00:41:16Z</time>
      </trkpt>
      <trkpt lat="47.05651" lon="6.19202">
        <ele>560</ele>
        <time>2022-06-05T00:41:32Z</time>
      </trkpt>
      <trkpt lat="47.05691" lon="6.19207">
        <ele>552</ele>
        <time>2022-06-05T00:42:04Z</time>
      </trkpt>
      <trkpt lat="47.05714" lon="6.19215">
        <ele>548</ele>
        <time>2022-06-05T00:42:23Z</time>
      </trkpt>
      <trkpt lat="47.05744" lon="6.19249">
        <ele>552</ele>
        <time>2022-06-05T00:42:53Z</time>
      </trkpt>
      <trkpt lat="47.05773" lon="6.19285">
        <ele>555</ele>
        <time>2022-06-05T00:43:24Z</time>
      </trkpt>
      <trkpt lat="47.05821" lon="6.19313">
        <ele>546</ele>
        <time>2022-06-05T00:44:05Z</time>
      </trkpt>
      <trkpt lat="47.0589" lon="6.19389">
        <ele>541</ele>
        <time>2022-06-05T00:45:14Z</time>
      </trkpt>
      <trkpt lat="47.05956" lon="6.19491">
        <ele>543</ele>
        <time>2022-06-05T00:46:31Z</time>
      </trkpt>
      <trkpt lat="47.06017" lon="6.19588">
        <ele>531</ele>
        <time>2022-06-05T00:47:43Z</time>
      </trkpt>
      <trkpt lat="47.06046" lon="6.1962">
        <ele>522</ele>
        <time>2022-06-05T00:48:12Z</time>
      </trkpt>
      <trkpt lat="47.06016" lon="6.19637">
        <ele>528</ele>
        <time>2022-06-05T00:48:38Z</time>
      </trkpt>
      <trkpt lat="47.05987" lon="6.19635">
        <ele>536</ele>
        <time>2022-06-05T00:49:01Z</time>
      </trkpt>
      <trkpt lat="47.05969" lon="6.19631">
        <ele>543</ele>
        <time>2022-06-05T00:49:16Z</time>
      </trkpt>
      <trkpt lat="47.05927" lon="6.19642">
        <ele>558</ele>
        <time>2022-06-05T00:49:50Z</time>
      </trkpt>
      <trkpt lat="47.05905" lon="6.1966">
        <ele>564</ele>
        <time>2022-06-05T00:50:10Z</time>
      </trkpt>
      <trkpt lat="47.05888" lon="6.19687">
        <ele>558</ele>
        <time>2022-06-05T00:50:30Z</time>
      </trkpt>
      <trkpt lat="47.05853" lon="6.1973">
        <ele>549</ele>
        <time>2022-06-05T00:51:07Z</time>
      </trkpt>
      <trkpt lat="47.05821" lon="6.1976">
        <ele>543</ele>
        <time>2022-06-05T00:51:37Z</time>
      </trkpt>
      <trkpt lat="47.05798" lon="6.19772">
        <ele>539</ele>
        <time>2022-06-05T00:51:57Z</time>
      </trkpt>
      <trkpt lat="47.05773" lon="6.19771">
        <ele>542</ele>
        <time>2022-06-05T00:52:17Z</time>
      </trkpt>
      <trkpt lat="47.05726" lon="6.19747">
        <ele>551</ele>
        <time>2022-06-05T00:52:57Z</time>
      </trkpt>
      <trkpt lat="47.05678" lon="6.19717">
        <ele>558</ele>
        <time>2022-06-05T00:53:39Z</time>
      </trkpt>
      <trkpt lat="47.05649" lon="6.19714">
        <ele>556</ele>
        <time>2022-06-05T00:54:02Z</time>
      </trkpt>
      <trkpt lat="47.05632" lon="6.19694">
        <ele>562</ele>
        <time>2022-06-05T00:54:19Z</time>
      </trkpt>
      <trkpt lat="47.05608" lon="6.19673">
        <ele>567</ele>
        <time>2022-06-05T00:54:42Z</time>
      </trkpt>
      <trkpt lat="47.0557" lon="6.1966">
        <ele>569</ele>
        <time>2022-06-05T00:55:13Z</time>
      </trkpt>
      <trkpt lat="47.05541" lon="6.19659">
        <ele>569</ele>
        <time>2022-06-05T00:55:36Z</time>
      </trkpt>
      <trkpt lat="47.05505" lon="6.19692">
        <ele>560</ele>
        <time>2022-06-05T00:56:10Z</time>
      </trkpt>
      <trkpt lat="47.0547" lon="6.19674">
        <ele>574</ele>
        <time>2022-06-05T00:56:40Z</time>
      </trkpt>
      <trkpt lat="47.05443" lon="6.19682">
        <ele>581</ele>
        <time>2022-06-05T00:57:02Z</time>
      </trkpt>
      <trkpt lat="47.05418" lon="6.19701">
        <ele>586</ele>
        <time>2022-06-05T00:57:25Z</time>
      </trkpt>
      <trkpt lat="47.05385" lon="6.19771">
        <ele>596</ele>
        <time>2022-06-05T00:58:11Z</time>
      </trkpt>
      <trkpt lat="47.05365" lon="6.1981">
        <ele>608</ele>
        <time>2022-06-05T00:58:38Z</time>
      </trkpt>
      <trkpt lat="47.05353" lon="6.1983">
        <ele>615</ele>
        <time>2022-06-05T00:58:52Z</time>
      </trkpt>
      <trkpt lat="47.05339" lon="6.19827">
        <ele>622</ele>
        <time>2022-06-05T00:59:04Z</time>
      </trkpt>
      <trkpt lat="47.0533" lon="6.19809">
        <ele>625</ele>
        <time>2022-06-05T00:59:16Z</time>
      </trkpt>
      <trkpt lat="47.05316" lon="6.19778">
        <ele>629</ele>
        <time>2022-06-05T00:59:36Z</time>
      </trkpt>
      <trkpt lat="47.05299" lon="6.19739">
        <ele>634</ele>
        <time>2022-06-05T01:00:01Z</time>
      </trkpt>
      <trkpt lat="47.05281" lon="6.19706">
        <ele>641</ele>
        <time>2022-06-05T01:00:25Z</time>
      </trkpt>
      <trkpt lat="47.05271" lon="6.19652">
        <ele>645</ele>
        <time>2022-06-05T01:00:55Z</time>
      </trkpt>
      <trkpt lat="47.05279" lon="6.19556">
        <ele>652</ele>
        <time>2022-06-05T01:01:48Z</time>
      </trkpt>
      <trkpt lat="47.05285" lon="6.19516">
        <ele>655</ele>
        <time>2022-06-05T01:02:10Z</time>
      </trkpt>
      <trkpt lat="47.05267" lon="6.1946">
        <ele>657</ele>
        <time>2022-06-05T01:02:44Z</time>
      </trkpt>
      <trkpt lat="47.05213" lon="6.19377">
        <ele>658</ele>
        <time>2022-06-05T01:03:47Z</time>
      </trkpt>
      <trkpt lat="47.05145" lon="6.19322">
        <ele>661</ele>
        <time>2022-06-05T01:04:49Z</time>
      </trkpt>
      <trkpt lat="47.05104" lon="6.19296">
        <ele>663</ele>
        <time>2022-06-05T01:05:25Z</time>
      </trkpt>
      <trkpt lat="47.05081" lon="6.19225">
        <ele>659</ele>
        <time>2022-06-05T01:06:08Z</time>
      </trkpt>
      <trkpt lat="47.0506" lon="6.19143">
        <ele>654</ele>
        <time>2022-06-05T01:06:56Z</time>
      </trkpt>
      <trkpt lat="47.04996" lon="6.1894">
        <ele>638</ele>
        <time>2022-06-05T01:08:58Z</time>
      </trkpt>
      <trkpt lat="47.04995" lon="6.18936">
        <ele>638</ele>
        <time>2022-06-05T01:09:00Z</time>
      </trkpt>
      <trkpt lat="47.05011" lon="6.18901">
        <ele>637</ele>
        <time>2022-06-05T01:09:23Z</time>
      </trkpt>
      <trkpt lat="47.05027" lon="6.18877">
        <ele>636</ele>
        <time>2022-06-05T01:09:41Z</time>
      </trkpt>
      <trkpt lat="47.0508" lon="6.18851">
        <ele>635</ele>
        <time>2022-06-05T01:10:26Z</time>
      </trkpt>
      <trkpt lat="47.05127" lon="6.18806">
        <ele>621</ele>
        <time>2022-06-05T01:11:11Z</time>
      </trkpt>
      <trkpt lat="47.05128" lon="6.18794">
        <ele>620</ele>
        <time>2022-06-05T01:11:18Z</time>
      </trkpt>
      <trkpt lat="47.05119" lon="6.18748">
        <ele>616</ele>
        <time>2022-06-05T01:11:44Z</time>
      </trkpt>
      <trkpt lat="47.05115" lon="6.18725">
        <ele>616</ele>
        <time>2022-06-05T01:11:57Z</time>
      </trkpt>
      <trkpt lat="47.05092" lon="6.1865">
        <ele>624</ele>
        <time>2022-06-05T01:12:42Z</time>
      </trkpt>
      <trkpt lat="47.05068" lon="6.18503">
        <ele>635</ele>
        <time>2022-06-05T01:14:04Z</time>
      </trkpt>
      <trkpt lat="47.05065" lon="6.18464">
        <ele>639</ele>
        <time>2022-06-05T01:14:26Z</time>
      </trkpt>
      <trkpt lat="47.05073" lon="6.18419">
        <ele>644</ele>
        <time>2022-06-05T01:14:51Z</time>
      </trkpt>
      <trkpt lat="47.05114" lon="6.18371">
        <ele>643</ele>
        <time>2022-06-05T01:15:33Z</time>
      </trkpt>
      <trkpt lat="47.05189" lon="6.18329">
        <ele>642</ele>
        <time>2022-06-05T01:16:38Z</time>
      </trkpt>
      <trkpt lat="47.05205" lon="6.18296">
        <ele>644</ele>
        <time>2022-06-05T01:17:00Z</time>
      </trkpt>
      <trkpt lat="47.05286" lon="6.18259">
        <ele>643</ele>
        <time>2022-06-05T01:18:08Z</time>
      </trkpt>
      <trkpt lat="47.0532" lon="6.18239">
        <ele>646</ele>
        <time>2022-06-05T01:18:37Z</time>
      </trkpt>
      <trkpt lat="47.05356" lon="6.18206">
        <ele>647</ele>
        <time>2022-06-05T01:19:11Z</time>
      </trkpt>
      <trkpt lat="47.05409" lon="6.18183">
        <ele>651</ele>
        <time>2022-06-05T01:19:55Z</time>
      </trkpt>
      <trkpt lat="47.05458" lon="6.18157">
        <ele>653</ele>
        <time>2022-06-05T01:20:37Z</time>
      </trkpt>
      <trkpt lat="47.05495" lon="6.18123">
        <ele>653</ele>
        <time>2022-06-05T01:21:12Z</time>
      </trkpt>
      <trkpt lat="47.05539" lon="6.18072">
        <ele>656</ele>
        <time>2022-06-05T01:21:57Z</time>
      </trkpt>
      <trkpt lat="47.05564" lon="6.18057">
        <ele>654</ele>
        <time>2022-06-05T01:22:19Z</time>
      </trkpt>
      <trkpt lat="47.05588" lon="6.18051">
        <ele>653</ele>
        <time>2022-06-05T01:22:38Z</time>
      </trkpt>
      <trkpt lat="47.05624" lon="6.18055">
        <ele>653</ele>
        <time>2022-06-05T01:23:07Z</time>
      </trkpt>
      <trkpt lat="47.05656" lon="6.18072">
        <ele>652</ele>
        <time>2022-06-05T01:23:34Z</time>
      </trkpt>
      <trkpt lat="47.05702" lon="6.18084">
        <ele>654</ele>
        <time>2022-06-05T01:24:12Z</time>
      </trkpt>
      <trkpt lat="47.05791" lon="6.18116">
        <ele>649</ele>
        <time>2022-06-05T01:25:25Z</time>
      </trkpt>
      <trkpt lat="47.0586" lon="6.1795">
        <ele>644</ele>
        <time>2022-06-05T01:27:11Z</time>
      </trkpt>
      <trkpt lat="47.05896" lon="6.17869">
        <ele>634</ele>
        <time>2022-06-05T01:28:04Z</time>
      </trkpt>
      <trkpt lat="47.05893" lon="6.17864">
        <ele>634</ele>
        <time>2022-06-05T01:28:08Z</time>
      </trkpt>
      <trkpt lat="47.05884" lon="6.17842">
        <ele>632</ele>
        <time>2022-06-05T01:28:22Z</time>
      </trkpt>
      <trkpt lat="47.0586" lon="6.17807">
        <ele>632</ele>
        <time>2022-06-05T01:28:49Z</time>
      </trkpt>
      <trkpt lat="47.05856" lon="6.17773">
        <ele>632</ele>
        <time>2022-06-05T01:29:08Z</time>
      </trkpt>
      <trkpt lat="47.05876" lon="6.17767">
        <ele>628</ele>
        <time>2022-06-05T01:29:24Z</time>
      </trkpt>
      <trkpt lat="47.0589" lon="6.17759">
        <ele>625</ele>
        <time>2022-06-05T01:29:36Z</time>
      </trkpt>
      <trkpt lat="47.05907" lon="6.17733">
        <ele>623</ele>
        <time>2022-06-05T01:29:56Z</time>
      </trkpt>
      <trkpt lat="47.05936" lon="6.17708">
        <ele>618</ele>
        <time>2022-06-05T01:30:23Z</time>
      </trkpt>
      <trkpt lat="47.05963" lon="6.17698">
        <ele>610</ele>
        <time>2022-06-05T01:30:45Z</time>
      </trkpt>
      <trkpt lat="47.05985" lon="6.17709">
        <ele>601</ele>
        <time>2022-06-05T01:31:04Z</time>
      </trkpt>
      <trkpt lat="47.05998" lon="6.17724">
        <ele>593</ele>
        <time>2022-06-05T01:31:17Z</time>
      </trkpt>
      <trkpt lat="47.06001" lon="6.17746">
        <ele>586</ele>
        <time>2022-06-05T01:31:29Z</time>
      </trkpt>
      <trkpt lat="47.06012" lon="6.17763">
        <ele>587</ele>
        <time>2022-06-05T01:31:42Z</time>
      </trkpt>
      <trkpt lat="47.06031" lon="6.17781">
        <ele>588</ele>
        <time>2022-06-05T01:32:00Z</time>
      </trkpt>
      <trkpt lat="47.06074" lon="6.17789">
        <ele>584</ele>
        <time>2022-06-05T01:32:35Z</time>
      </trkpt>
      <trkpt lat="47.0616" lon="6.17758">
        <ele>570</ele>
        <time>2022-06-05T01:33:46Z</time>
      </trkpt>
      <trkpt lat="47.06216" lon="6.17703">
        <ele>563</ele>
        <time>2022-06-05T01:34:40Z</time>
      </trkpt>
      <trkpt lat="47.06246" lon="6.17651">
        <ele>551</ele>
        <time>2022-06-05T01:35:17Z</time>
      </trkpt>
      <trkpt lat="47.06267" lon="6.17619">
        <ele>550</ele>
        <time>2022-06-05T01:35:41Z</time>
      </trkpt>
      <trkpt lat="47.06272" lon="6.17595">
        <ele>547</ele>
        <time>2022-06-05T01:35:55Z</time>
      </trkpt>
      <trkpt lat="47.06273" lon="6.17581">
        <ele>546</ele>
        <time>2022-06-05T01:36:03Z</time>
      </trkpt>
      <trkpt lat="47.06273" lon="6.17557">
        <ele>545</ele>
        <time>2022-06-05T01:36:16Z</time>
      </trkpt>
      <trkpt lat="47.06282" lon="6.17523">
        <ele>544</ele>
        <time>2022-06-05T01:36:36Z</time>
      </trkpt>
      <trkpt lat="47.06289" lon="6.17509">
        <ele>542</ele>
        <time>2022-06-05T01:36:45Z</time>
      </trkpt>
      <trkpt lat="47.06337" lon="6.17466">
        <ele>533</ele>
        <time>2022-06-05T01:37:30Z</time>
      </trkpt>
      <trkpt lat="47.06358" lon="6.17433">
        <ele>532</ele>
        <time>2022-06-05T01:37:55Z</time>
      </trkpt>
      <trkpt lat="47.06424" lon="6.17346">
        <ele>523</ele>
        <time>2022-06-05T01:39:06Z</time>
      </trkpt>
      <trkpt lat="47.06481" lon="6.17277">
        <ele>520</ele>
        <time>2022-06-05T01:40:05Z</time>
      </trkpt>
      <trkpt lat="47.06548" lon="6.17225">
        <ele>512</ele>
        <time>2022-06-05T01:41:06Z</time>
      </trkpt>
      <trkpt lat="47.06552" lon="6.17211">
        <ele>511</ele>
        <time>2022-06-05T01:41:14Z</time>
      </trkpt>
      <trkpt lat="47.06575" lon="6.17183">
        <ele>504</ele>
        <time>2022-06-05T01:41:38Z</time>
      </trkpt>
      <trkpt lat="47.06609" lon="6.17166">
        <ele>499</ele>
        <time>2022-06-05T01:42:07Z</time>
      </trkpt>
      <trkpt lat="47.06642" lon="6.17165">
        <ele>499</ele>
        <time>2022-06-05T01:42:34Z</time>
      </trkpt>
      <trkpt lat="47.06687" lon="6.1714">
        <ele>495</ele>
        <time>2022-06-05T01:43:12Z</time>
      </trkpt>
      <trkpt lat="47.06741" lon="6.17127">
        <ele>490</ele>
        <time>2022-06-05T01:43:56Z</time>
      </trkpt>
      <trkpt lat="47.06834" lon="6.17081">
        <ele>475</ele>
        <time>2022-06-05T01:45:15Z</time>
      </trkpt>
      <trkpt lat="47.06889" lon="6.17072">
        <ele>470</ele>
        <time>2022-06-05T01:45:59Z</time>
      </trkpt>
      <trkpt lat="47.06934" lon="6.17059">
        <ele>463</ele>
        <time>2022-06-05T01:46:36Z</time>
      </trkpt>
      <trkpt lat="47.06995" lon="6.17018">
        <ele>446</ele>
        <time>2022-06-05T01:47:30Z</time>
      </trkpt>
      <trkpt lat="47.07022" lon="6.17005">
        <ele>444</ele>
        <time>2022-06-05T01:47:52Z</time>
      </trkpt>
      <trkpt lat="47.07086" lon="6.16957">
        <ele>445</ele>
        <time>2022-06-05T01:48:50Z</time>
      </trkpt>
      <trkpt lat="47.07149" lon="6.1689">
        <ele>438</ele>
        <time>2022-06-05T01:49:52Z</time>
      </trkpt>
      <trkpt lat="47.07177" lon="6.16857">
        <ele>433</ele>
        <time>2022-06-05T01:50:21Z</time>
      </trkpt>
      <trkpt lat="47.07205" lon="6.16833">
        <ele>430</ele>
        <time>2022-06-05T01:50:47Z</time>
      </trkpt>
      <trkpt lat="47.07233" lon="6.16811">
        <ele>430</ele>
        <time>2022-06-05T01:51:12Z</time>
      </trkpt>
      <trkpt lat="47.07248" lon="6.168">
        <ele>429</ele>
        <time>2022-06-05T01:51:26Z</time>
      </trkpt>
      <trkpt lat="47.07296" lon="6.16774">
        <ele>427</ele>
        <time>2022-06-05T01:52:07Z</time>
      </trkpt>
      <trkpt lat="47.07348" lon="6.16766">
        <ele>424</ele>
        <time>2022-06-05T01:52:49Z</time>
      </trkpt>
      <trkpt lat="47.07416" lon="6.16772">
        <ele>420</ele>
        <time>2022-06-05T01:53:43Z</time>
      </trkpt>
      <trkpt lat="47.07445" lon="6.16765">
        <ele>418</ele>
        <time>2022-06-05T01:54:07Z</time>
      </trkpt>
      <trkpt lat="47.07499" lon="6.16737">
        <ele>414</ele>
        <time>2022-06-05T01:54:53Z</time>
      </trkpt>
      <trkpt lat="47.07546" lon="6.1672">
        <ele>415</ele>
        <time>2022-06-05T01:55:32Z</time>
      </trkpt>
      <trkpt lat="47.07599" lon="6.16715">
        <ele>414</ele>
        <time>2022-06-05T01:56:14Z</time>
      </trkpt>
      <trkpt lat="47.0766" lon="6.16715">
        <ele>408</ele>
        <time>2022-06-05T01:57:03Z</time>
      </trkpt>
      <trkpt lat="47.07707" lon="6.16721">
        <ele>407</ele>
        <time>2022-06-05T01:57:41Z</time>
      </trkpt>
      <trkpt lat="47.07744" lon="6.16732">
        <ele>407</ele>
        <time>2022-06-05T01:58:11Z</time>
      </trkpt>
      <trkpt lat="47.07767" lon="6.16726">
        <ele>407</ele>
        <time>2022-06-05T01:58:30Z</time>
      </trkpt>
      <trkpt lat="47.07789" lon="6.1671">
        <ele>405</ele>
        <time>2022-06-05T01:58:50Z</time>
      </trkpt>
      <trkpt lat="47.07851" lon="6.16682">
        <ele>400</ele>
        <time>2022-06-05T01:59:42Z</time>
      </trkpt>
      <trkpt lat="47.07914" lon="6.16663">
        <ele>396</ele>
        <time>2022-06-05T02:00:33Z</time>
      </trkpt>
      <trkpt lat="47.07972" lon="6.16654">
        <ele>395</ele>
        <time>2022-06-05T02:01:20Z</time>
      </trkpt>
      <trkpt lat="47.08025" lon="6.1663">
        <ele>393</ele>
        <time>2022-06-05T02:02:04Z</time>
      </trkpt>
      <trkpt lat="47.08053" lon="6.16616">
        <ele>391</ele>
        <time>2022-06-05T02:02:28Z</time>
      </trkpt>
      <trkpt lat="47.08087" lon="6.16586">
        <ele>385</ele>
        <time>2022-06-05T02:03:00Z</time>
      </trkpt>
      <trkpt lat="47.0813" lon="6.16558">
        <ele>382</ele>
        <time>2022-06-05T02:03:38Z</time>
      </trkpt>
      <trkpt lat="47.08156" lon="6.1655">
        <ele>379</ele>
        <time>2022-06-05T02:03:59Z</time>
      </trkpt>
      <trkpt lat="47.08186" lon="6.16546">
        <ele>376</ele>
        <time>2022-06-05T02:04:23Z</time>
      </trkpt>
      <trkpt lat="47.08226" lon="6.16534">
        <ele>372</ele>
        <time>2022-06-05T02:04:56Z</time>
      </trkpt>
      <trkpt lat="47.08255" lon="6.16529">
        <ele>370</ele>
        <time>2022-06-05T02:05:19Z</time>
      </trkpt>
      <trkpt lat="47.08271" lon="6.16529">
        <ele>370</ele>
        <time>2022-06-05T02:05:32Z</time>
      </trkpt>
      <trkpt lat="47.08284" lon="6.16524">
        <ele>369</ele>
        <time>2022-06-05T02:05:43Z</time>
      </trkpt>
      <trkpt lat="47.08346" lon="6.16485">
        <ele>365</ele>
        <time>2022-06-05T02:06:37Z</time>
      </trkpt>
      <trkpt lat="47.08368" lon="6.16469">
        <ele>365</ele>
        <time>2022-06-05T02:06:56Z</time>
      </trkpt>
      <trkpt lat="47.08364" lon="6.16457">
        <ele>364</ele>
        <time>2022-06-05T02:07:04Z</time>
      </trkpt>
      <trkpt lat="47.08361" lon="6.1643">
        <ele>362</ele>
        <time>2022-06-05T02:07:19Z</time>
      </trkpt>
      <trkpt lat="47.08361" lon="6.16408">
        <ele>361</ele>
        <time>2022-06-05T02:07:31Z</time>
      </trkpt>
      <trkpt lat="47.08362" lon="6.16392">
        <ele>360</ele>
        <time>2022-06-05T02:07:39Z</time>
      </trkpt>
      <trkpt lat="47.08365" lon="6.16384">
        <ele>359</ele>
        <time>2022-06-05T02:07:44Z</time>
      </trkpt>
      <trkpt lat="47.0837" lon="6.16379">
        <ele>359</ele>
        <time>2022-06-05T02:07:49Z</time>
      </trkpt>
      <trkpt lat="47.08381" lon="6.16375">
        <ele>358</ele>
        <time>2022-06-05T02:07:58Z</time>
      </trkpt>
      <trkpt lat="47.08422" lon="6.1637">
        <ele>358</ele>
        <time>2022-06-05T02:08:31Z</time>
      </trkpt>
      <trkpt lat="47.08471" lon="6.16369">
        <ele>359</ele>
        <time>2022-06-05T02:09:11Z</time>
      </trkpt>
      <trkpt lat="47.08492" lon="6.16366">
        <ele>359</ele>
        <time>2022-06-05T02:09:28Z</time>
      </trkpt>
      <trkpt lat="47.08514" lon="6.16355">
        <ele>358</ele>
        <time>2022-06-05T02:09:46Z</time>
      </trkpt>
      <trkpt lat="47.08538" lon="6.16339">
        <ele>358</ele>
        <time>2022-06-05T02:10:07Z</time>
      </trkpt>
      <trkpt lat="47.08548" lon="6.16329">
        <ele>358</ele>
        <time>2022-06-05T02:10:17Z</time>
      </trkpt>
      <trkpt lat="47.08551" lon="6.16325">
        <ele>358</ele>
        <time>2022-06-05T02:10:20Z</time>
      </trkpt>
      <trkpt lat="47.08555" lon="6.16317">
        <ele>359</ele>
        <time>2022-06-05T02:10:26Z</time>
      </trkpt>
      <trkpt lat="47.08559" lon="6.1631">
        <ele>360</ele>
        <time>2022-06-05T02:10:31Z</time>
      </trkpt>
      <trkpt lat="47.08568" lon="6.16303">
        <ele>361</ele>
        <time>2022-06-05T02:10:39Z</time>
      </trkpt>
      <trkpt lat="47.08585" lon="6.16303">
        <ele>361</ele>
        <time>2022-06-05T02:10:52Z</time>
      </trkpt>
      <trkpt lat="47.08639" lon="6.16331">
        <ele>354</ele>
        <time>2022-06-05T02:11:38Z</time>
      </trkpt>
      <trkpt lat="47.08663" lon="6.16345">
        <ele>352</ele>
        <time>2022-06-05T02:11:59Z</time>
      </trkpt>
      <trkpt lat="47.08682" lon="6.16351">
        <ele>352</ele>
        <time>2022-06-05T02:12:15Z</time>
      </trkpt>
      <trkpt lat="47.08697" lon="6.16351">
        <ele>352</ele>
        <time>2022-06-05T02:12:27Z</time>
      </trkpt>
      <trkpt lat="47.08709" lon="6.16348">
        <ele>353</ele>
        <time>2022-06-05T02:12:36Z</time>
      </trkpt>
      <trkpt lat="47.08717" lon="6.16345">
        <ele>353</ele>
        <time>2022-06-05T02:12:43Z</time>
      </trkpt>
      <trkpt lat="47.08741" lon="6.16337">
        <ele>353</ele>
        <time>2022-06-05T02:13:03Z</time>
      </trkpt>
      <trkpt lat="47.08764" lon="6.16332">
        <ele>353</ele>
        <time>2022-06-05T02:13:21Z</time>
      </trkpt>
      <trkpt lat="47.08779" lon="6.16332">
        <ele>353</ele>
        <time>2022-06-05T02:13:33Z</time>
      </trkpt>
      <trkpt lat="47.08821" lon="6.16338">
        <ele>353</ele>
        <time>2022-06-05T02:14:07Z</time>
      </trkpt>
      <trkpt lat="47.08843" lon="6.1634">
        <ele>353</ele>
        <time>2022-06-05T02:14:25Z</time>
      </trkpt>
      <trkpt lat="47.08874" lon="6.16345">
        <ele>353</ele>
        <time>2022-06-05T02:14:50Z</time>
      </trkpt>
      <trkpt lat="47.0891" lon="6.1635">
        <ele>353</ele>
        <time>2022-06-05T02:15:19Z</time>
      </trkpt>
      <trkpt lat="47.08938" lon="6.16355">
        <ele>353</ele>
        <time>2022-06-05T02:15:41Z</time>
      </trkpt>
      <trkpt lat="47.08964" lon="6.16358">
        <ele>353</ele>
        <time>2022-06-05T02:16:02Z</time>
      </trkpt>
      <trkpt lat="47.08995" lon="6.16361">
        <ele>353</ele>
        <time>2022-06-05T02:16:27Z</time>
      </trkpt>
      <trkpt lat="47.09016" lon="6.16365">
        <ele>353</ele>
        <time>2022-06-05T02:16:44Z</time>
      </trkpt>
      <trkpt lat="47.09034" lon="6.16375">
        <ele>351</ele>
        <time>2022-06-05T02:17:00Z</time>
      </trkpt>
      <trkpt lat="47.09077" lon="6.16395">
        <ele>348</ele>
        <time>2022-06-05T02:17:36Z</time>
      </trkpt>
      <trkpt lat="47.09095" lon="6.16399">
        <ele>348</ele>
        <time>2022-06-05T02:17:50Z</time>
      </trkpt>
      <trkpt lat="47.09114" lon="6.16401">
        <ele>348</ele>
        <time>2022-06-05T02:18:06Z</time>
      </trkpt>
      <trkpt lat="47.09141" lon="6.164">
        <ele>349</ele>
        <time>2022-06-05T02:18:27Z</time>
      </trkpt>
      <trkpt lat="47.09162" lon="6.16397">
        <ele>350</ele>
        <time>2022-06-05T02:18:44Z</time>
      </trkpt>
      <trkpt lat="47.09183" lon="6.16391">
        <ele>350</ele>
        <time>2022-06-05T02:19:01Z</time>
      </trkpt>
      <trkpt lat="47.09203" lon="6.16381">
        <ele>351</ele>
        <time>2022-06-05T02:19:18Z</time>
      </trkpt>
      <trkpt lat="47.0922" lon="6.16375">
        <ele>351</ele>
        <time>2022-06-05T02:19:32Z</time>
      </trkpt>
      <trkpt lat="47.09266" lon="6.16368">
        <ele>349</ele>
        <time>2022-06-05T02:20:09Z</time>
      </trkpt>
      <trkpt lat="47.09288" lon="6.16369">
        <ele>349</ele>
        <time>2022-06-05T02:20:27Z</time>
      </trkpt>
      <trkpt lat="47.09308" lon="6.16375">
        <ele>347</ele>
        <time>2022-06-05T02:20:43Z</time>
      </trkpt>
      <trkpt lat="47.09324" lon="6.16381">
        <ele>347</ele>
        <time>2022-06-05T02:20:57Z</time>
      </trkpt>
      <trkpt lat="47.09345" lon="6.16383">
        <ele>346</ele>
        <time>2022-06-05T02:21:13Z</time>
      </trkpt>
      <trkpt lat="47.09351" lon="6.16381">
        <ele>346</ele>
        <time>2022-06-05T02:21:18Z</time>
      </trkpt>
      <trkpt lat="47.09363" lon="6.16372">
        <ele>347</ele>
        <time>2022-06-05T02:21:29Z</time>
      </trkpt>
      <trkpt lat="47.09386" lon="6.16346">
        <ele>348</ele>
        <time>2022-06-05T02:21:52Z</time>
      </trkpt>
      <trkpt lat="47.09408" lon="6.16323">
        <ele>349</ele>
        <time>2022-06-05T02:22:14Z</time>
      </trkpt>
      <trkpt lat="47.09431" lon="6.16304">
        <ele>349</ele>
        <time>2022-06-05T02:22:35Z</time>
      </trkpt>
      <trkpt lat="47.09459" lon="6.16288">
        <ele>349</ele>
        <time>2022-06-05T02:22:59Z</time>
      </trkpt>
      <trkpt lat="47.09491" lon="6.16272">
        <ele>347</ele>
        <time>2022-06-05T02:23:26Z</time>
      </trkpt>
      <trkpt lat="47.09524" lon="6.16259">
        <ele>346</ele>
        <time>2022-06-05T02:23:54Z</time>
      </trkpt>
      <trkpt lat="47.09541" lon="6.16253">
        <ele>345</ele>
        <time>2022-06-05T02:24:08Z</time>
      </trkpt>
      <trkpt lat="47.09603" lon="6.16227">
        <ele>344</ele>
        <time>2022-06-05T02:25:00Z</time>
      </trkpt>
      <trkpt lat="47.09626" lon="6.1622">
        <ele>344</ele>
        <time>2022-06-05T02:25:18Z</time>
      </trkpt>
      <trkpt lat="47.09657" lon="6.16216">
        <ele>344</ele>
        <time>2022-06-05T02:25:43Z</time>
      </trkpt>
      <trkpt lat="47.0968" lon="6.16211">
        <ele>344</ele>
        <time>2022-06-05T02:26:02Z</time>
      </trkpt>
      <trkpt lat="47.09698" lon="6.16204">
        <ele>344</ele>
        <time>2022-06-05T02:26:17Z</time>
      </trkpt>
      <trkpt lat="47.09716" lon="6.16188">
        <ele>343</ele>
        <time>2022-06-05T02:26:34Z</time>
      </trkpt>
      <trkpt lat="47.09707" lon="6.16206">
        <ele>343</ele>
        <time>2022-06-05T02:26:46Z</time>
      </trkpt>
      <trkpt lat="47.0969" lon="6.16231">
        <ele>343</ele>
        <time>2022-06-05T02:27:05Z</time>
      </trkpt>
      <trkpt lat="47.09668" lon="6.16265">
        <ele>344</ele>
        <time>2022-06-05T02:27:31Z</time>
      </trkpt>
      <trkpt lat="47.09651" lon="6.16295">
        <ele>343</ele>
        <time>2022-06-05T02:27:52Z</time>
      </trkpt>
      <trkpt lat="47.0963" lon="6.16335">
        <ele>343</ele>
        <time>2022-06-05T02:28:20Z</time>
      </trkpt>
      <trkpt lat="47.09581" lon="6.16415">
        <ele>343</ele>
        <time>2022-06-05T02:29:18Z</time>
      </trkpt>
      <trkpt lat="47.0956" lon="6.16448">
        <ele>343</ele>
        <time>2022-06-05T02:29:43Z</time>
      </trkpt>
      <trkpt lat="47.09541" lon="6.16482">
        <ele>343</ele>
        <time>2022-06-05T02:30:07Z</time>
      </trkpt>
      <trkpt lat="47.09531" lon="6.16501">
        <ele>343</ele>
        <time>2022-06-05T02:30:20Z</time>
      </trkpt>
      <trkpt lat="47.09516" lon="6.16534">
        <ele>342</ele>
        <time>2022-06-05T02:30:42Z</time>
      </trkpt>
      <trkpt lat="47.095" lon="6.16573">
        <ele>341</ele>
        <time>2022-06-05T02:31:07Z</time>
      </trkpt>
      <trkpt lat="47.09464" lon="6.16647">
        <ele>339</ele>
        <time>2022-06-05T02:31:56Z</time>
      </trkpt>
      <trkpt lat="47.09431" lon="6.16699">
        <ele>338</ele>
        <time>2022-06-05T02:32:35Z</time>
      </trkpt>
      <trkpt lat="47.09388" lon="6.16758">
        <ele>338</ele>
        <time>2022-06-05T02:33:22Z</time>
      </trkpt>
      <trkpt lat="47.0938" lon="6.1677">
        <ele>338</ele>
        <time>2022-06-05T02:33:31Z</time>
      </trkpt>
      <trkpt lat="47.09373" lon="6.16779">
        <ele>338</ele>
        <time>2022-06-05T02:33:39Z</time>
      </trkpt>
      <trkpt lat="47.09362" lon="6.16796">
        <ele>339</ele>
        <time>2022-06-05T02:33:52Z</time>
      </trkpt>
      <trkpt lat="47.09328" lon="6.16837">
        <ele>341</ele>
        <time>2022-06-05T02:34:27Z</time>
      </trkpt>
      <trkpt lat="47.09292" lon="6.16871">
        <ele>339</ele>
        <time>2022-06-05T02:35:01Z</time>
      </trkpt>
      <trkpt lat="47.09275" lon="6.16893">
        <ele>338</ele>
        <time>2022-06-05T02:35:19Z</time>
      </trkpt>
      <trkpt lat="47.09269" lon="6.16917">
        <ele>338</ele>
        <time>2022-06-05T02:35:33Z</time>
      </trkpt>
      <trkpt lat="47.09265" lon="6.16936">
        <ele>338</ele>
        <time>2022-06-05T02:35:44Z</time>
      </trkpt>
      <trkpt lat="47.09262" lon="6.16945">
        <ele>338</ele>
        <time>2022-06-05T02:35:50Z</time>
      </trkpt>
      <trkpt lat="47.0925" lon="6.16978">
        <ele>337</ele>
        <time>2022-06-05T02:36:10Z</time>
      </trkpt>
      <trkpt lat="47.09237" lon="6.17011">
        <ele>339</ele>
        <time>2022-06-05T02:36:31Z</time>
      </trkpt>
      <trkpt lat="47.0922" lon="6.17049">
        <ele>342</ele>
        <time>2022-06-05T02:36:56Z</time>
      </trkpt>
      <trkpt lat="47.09211" lon="6.17076">
        <ele>343</ele>
        <time>2022-06-05T02:37:12Z</time>
      </trkpt>
      <trkpt lat="47.09208" lon="6.17097">
        <ele>343</ele>
        <time>2022-06-05T02:37:24Z</time>
      </trkpt>
      <trkpt lat="47.092" lon="6.17137">
        <ele>343</ele>
        <time>2022-06-05T02:37:46Z</time>
      </trkpt>
      <trkpt lat="47.09196" lon="6.17168">
        <ele>343</ele>
        <time>2022-06-05T02:38:04Z</time>
      </trkpt>
      <trkpt lat="47.0919" lon="6.17196">
        <ele>342</ele>
        <time>2022-06-05T02:38:20Z</time>
      </trkpt>
      <trkpt lat="47.09171" lon="6.17227">
        <ele>341</ele>
        <time>2022-06-05T02:38:42Z</time>
      </trkpt>
      <trkpt lat="47.0914" lon="6.17273">
        <ele>343</ele>
        <time>2022-06-05T02:39:18Z</time>
      </trkpt>
      <trkpt lat="47.0909" lon="6.17351">
        <ele>345</ele>
        <time>2022-06-05T02:40:16Z</time>
      </trkpt>
      <trkpt lat="47.09049" lon="6.17412">
        <ele>348</ele>
        <time>2022-06-05T02:41:03Z</time>
      </trkpt>
      <trkpt lat="47.09022" lon="6.17454">
        <ele>347</ele>
        <time>2022-06-05T02:41:35Z</time>
      </trkpt>
      <trkpt lat="47.09007" lon="6.17476">
        <ele>345</ele>
        <time>2022-06-05T02:41:52Z</time>
      </trkpt>
      <trkpt lat="47.08978" lon="6.17524">
        <ele>345</ele>
        <time>2022-06-05T02:42:27Z</time>
      </trkpt>
      <trkpt lat="47.08936" lon="6.1761">
        <ele>344</ele>
        <time>2022-06-05T02:43:24Z</time>
      </trkpt>
      <trkpt lat="47.08907" lon="6.17678">
        <ele>341</ele>
        <time>2022-06-05T02:44:08Z</time>
      </trkpt>
      <trkpt lat="47.08869" lon="6.17771">
        <ele>344</ele>
        <time>2022-06-05T02:45:07Z</time>
      </trkpt>
      <trkpt lat="47.08844" lon="6.1783">
        <ele>342</ele>
        <time>2022-06-05T02:45:45Z</time>
      </trkpt>
      <trkpt lat="47.08818" lon="6.17879">
        <ele>342</ele>
        <time>2022-06-05T02:46:19Z</time>
      </trkpt>
      <trkpt lat="47.08793" lon="6.17924">
        <ele>342</ele>
        <time>2022-06-05T02:46:51Z</time>
      </trkpt>
      <trkpt lat="47.08759" lon="6.17967">
        <ele>342</ele>
        <time>2022-06-05T02:47:27Z</time>
      </trkpt>
      <trkpt lat="47.08726" lon="6.18007">
        <ele>342</ele>
        <time>2022-06-05T02:48:01Z</time>
      </trkpt>
      <trkpt lat="47.08693" lon="6.18042">
        <ele>343</ele>
        <time>2022-06-05T02:48:34Z</time>
      </trkpt>
      <trkpt lat="47.08662" lon="6.1807">
        <ele>342</ele>
        <time>2022-06-05T02:49:03Z</time>
      </trkpt>
      <trkpt lat="47.08629" lon="6.18095">
        <ele>343</ele>
        <time>2022-06-05T02:49:33Z</time>
      </trkpt>
      <trkpt lat="47.08584" lon="6.18122">
        <ele>346</ele>
        <time>2022-06-05T02:50:12Z</time>
      </trkpt>
      <trkpt lat="47.08536" lon="6.18149">
        <ele>345</ele>
        <time>2022-06-05T02:50:53Z</time>
      </trkpt>
      <trkpt lat="47.08365" lon="6.18239">
        <ele>344</ele>
        <time>2022-06-05T02:53:18Z</time>
      </trkpt>
      <trkpt lat="47.08351" lon="6.18247">
        <ele>344</ele>
        <time>2022-06-05T02:53:30Z</time>
      </trkpt>
      <trkpt lat="47.08288" lon="6.18286">
        <ele>346</ele>
        <time>2022-06-05T02:54:25Z</time>
      </trkpt>
      <trkpt lat="47.08227" lon="6.18326">
        <ele>349</ele>
        <time>2022-06-05T02:55:19Z</time>
      </trkpt>
      <trkpt lat="47.08209" lon="6.18354">
        <ele>351</ele>
        <time>2022-06-05T02:55:40Z</time>
      </trkpt>
      <trkpt lat="47.08197" lon="6.18365">
        <ele>352</ele>
        <time>2022-06-05T02:55:51Z</time>
      </trkpt>
      <trkpt lat="47.08195" lon="6.18378">
        <ele>351</ele>
        <time>2022-06-05T02:55:58Z</time>
      </trkpt>
      <trkpt lat="47.08168" lon="6.18441">
        <ele>348</ele>
        <time>2022-06-05T02:56:39Z</time>
      </trkpt>
      <trkpt lat="47.08156" lon="6.18464">
        <ele>349</ele>
        <time>2022-06-05T02:56:55Z</time>
      </trkpt>
      <trkpt lat="47.08147" lon="6.1848">
        <ele>349</ele>
        <time>2022-06-05T02:57:06Z</time>
      </trkpt>
      <trkpt lat="47.08142" lon="6.18492">
        <ele>349</ele>
        <time>2022-06-05T02:57:14Z</time>
      </trkpt>
      <trkpt lat="47.08136" lon="6.18503">
        <ele>348</ele>
        <time>2022-06-05T02:57:22Z</time>
      </trkpt>
      <trkpt lat="47.08128" lon="6.18513">
        <ele>349</ele>
        <time>2022-06-05T02:57:30Z</time>
      </trkpt>
      <trkpt lat="47.08121" lon="6.18518">
        <ele>350</ele>
        <time>2022-06-05T02:57:36Z</time>
      </trkpt>
      <trkpt lat="47.0811" lon="6.18528">
        <ele>350</ele>
        <time>2022-06-05T02:57:47Z</time>
      </trkpt>
      <trkpt lat="47.08084" lon="6.1857">
        <ele>346</ele>
        <time>2022-06-05T02:58:18Z</time>
      </trkpt>
      <trkpt lat="47.08074" lon="6.18588">
        <ele>345</ele>
        <time>2022-06-05T02:58:30Z</time>
      </trkpt>
      <trkpt lat="47.0805" lon="6.18616">
        <ele>346</ele>
        <time>2022-06-05T02:58:55Z</time>
      </trkpt>
      <trkpt lat="47.08036" lon="6.18637">
        <ele>344</ele>
        <time>2022-06-05T02:59:11Z</time>
      </trkpt>
      <trkpt lat="47.07992" lon="6.18659">
        <ele>341</ele>
        <time>2022-06-05T02:59:48Z</time>
      </trkpt>
      <trkpt lat="47.07984" lon="6.18657">
        <ele>342</ele>
        <time>2022-06-05T02:59:55Z</time>
      </trkpt>
      <trkpt lat="47.0798" lon="6.18654">
        <ele>343</ele>
        <time>2022-06-05T02:59:58Z</time>
      </trkpt>
      <trkpt lat="47.07977" lon="6.18649">
        <ele>345</ele>
        <time>2022-06-05T03:00:02Z</time>
      </trkpt>
      <trkpt lat="47.07973" lon="6.18645">
        <ele>347</ele>
        <time>2022-06-05T03:00:06Z</time>
      </trkpt>
      <trkpt lat="47.0797" lon="6.1864">
        <ele>348</ele>
        <time>2022-06-05T03:00:09Z</time>
      </trkpt>
      <trkpt lat="47.07965" lon="6.18634">
        <ele>350</ele>
        <time>2022-06-05T03:00:15Z</time>
      </trkpt>
      <trkpt lat="47.0796" lon="6.18631">
        <ele>352</ele>
        <time>2022-06-05T03:00:19Z</time>
      </trkpt>
      <trkpt lat="47.07954" lon="6.18631">
        <ele>352</ele>
        <time>2022-06-05T03:00:24Z</time>
      </trkpt>
      <trkpt lat="47.07937" lon="6.18634">
        <ele>352</ele>
        <time>2022-06-05T03:00:37Z</time>
      </trkpt>
      <trkpt lat="47.07919" lon="6.18638">
        <ele>352</ele>
        <time>2022-06-05T03:00:52Z</time>
      </trkpt>
      <trkpt lat="47.07894" lon="6.18647">
        <ele>352</ele>
        <time>2022-06-05T03:01:13Z</time>
      </trkpt>
      <trkpt lat="47.07877" lon="6.18652">
        <ele>352</ele>
        <time>2022-06-05T03:01:26Z</time>
      </trkpt>
      <trkpt lat="47.07863" lon="6.18654">
        <ele>353</ele>
        <time>2022-06-05T03:01:38Z</time>
      </trkpt>
      <trkpt lat="47.07842" lon="6.1866">
        <ele>352</ele>
        <time>2022-06-05T03:01:55Z</time>
      </trkpt>
      <trkpt lat="47.07813" lon="6.18667">
        <ele>350</ele>
        <time>2022-06-05T03:02:18Z</time>
      </trkpt>
      <trkpt lat="47.07766" lon="6.18676">
        <ele>349</ele>
        <time>2022-06-05T03:02:56Z</time>
      </trkpt>
      <trkpt lat="47.07739" lon="6.18684">
        <ele>349</ele>
        <time>2022-06-05T03:03:19Z</time>
      </trkpt>
      <trkpt lat="47.07702" lon="6.18696">
        <ele>352</ele>
        <time>2022-06-05T03:03:49Z</time>
      </trkpt>
      <trkpt lat="47.07675" lon="6.187">
        <ele>354</ele>
        <time>2022-06-05T03:04:11Z</time>
      </trkpt>
      <trkpt lat="47.07653" lon="6.18709">
        <ele>354</ele>
        <time>2022-06-05T03:04:29Z</time>
      </trkpt>
      <trkpt lat="47.0763" lon="6.18723">
        <ele>353</ele>
        <time>2022-06-05T03:04:49Z</time>
      </trkpt>
      <trkpt lat="47.07623" lon="6.18728">
        <ele>353</ele>
        <time>2022-06-05T03:04:55Z</time>
      </trkpt>
      <trkpt lat="47.07617" lon="6.18734">
        <ele>352</ele>
        <time>2022-06-05T03:05:01Z</time>
      </trkpt>
      <trkpt lat="47.07611" lon="6.18741">
        <ele>351</ele>
        <time>2022-06-05T03:05:07Z</time>
      </trkpt>
      <trkpt lat="47.07598" lon="6.18761">
        <ele>350</ele>
        <time>2022-06-05T03:05:22Z</time>
      </trkpt>
      <trkpt lat="47.07586" lon="6.18776">
        <ele>350</ele>
        <time>2022-06-05T03:05:35Z</time>
      </trkpt>
      <trkpt lat="47.07579" lon="6.18783">
        <ele>350</ele>
        <time>2022-06-05T03:05:42Z</time>
      </trkpt>
      <trkpt lat="47.07571" lon="6.18788">
        <ele>352</ele>
        <time>2022-06-05T03:05:49Z</time>
      </trkpt>
      <trkpt lat="47.07564" lon="6.18793">
        <ele>352</ele>
        <time>2022-06-05T03:05:55Z</time>
      </trkpt>
      <trkpt lat="47.07555" lon="6.18802">
        <ele>353</ele>
        <time>2022-06-05T03:06:04Z</time>
      </trkpt>
      <trkpt lat="47.07539" lon="6.18825">
        <ele>354</ele>
        <time>2022-06-05T03:06:22Z</time>
      </trkpt>
      <trkpt lat="47.0753" lon="6.18841">
        <ele>353</ele>
        <time>2022-06-05T03:06:33Z</time>
      </trkpt>
      <trkpt lat="47.07505" lon="6.1889">
        <ele>350</ele>
        <time>2022-06-05T03:07:06Z</time>
      </trkpt>
      <trkpt lat="47.07491" lon="6.18909">
        <ele>349</ele>
        <time>2022-06-05T03:07:22Z</time>
      </trkpt>
      <trkpt lat="47.07481" lon="6.1892">
        <ele>350</ele>
        <time>2022-06-05T03:07:32Z</time>
      </trkpt>
      <trkpt lat="47.07444" lon="6.18959">
        <ele>350</ele>
        <time>2022-06-05T03:08:08Z</time>
      </trkpt>
      <trkpt lat="47.07409" lon="6.18997">
        <ele>347</ele>
        <time>2022-06-05T03:08:43Z</time>
      </trkpt>
      <trkpt lat="47.07377" lon="6.19037">
        <ele>349</ele>
        <time>2022-06-05T03:09:17Z</time>
      </trkpt>
      <trkpt lat="47.07354" lon="6.19077">
        <ele>348</ele>
        <time>2022-06-05T03:09:45Z</time>
      </trkpt>
      <trkpt lat="47.07345" lon="6.19095">
        <ele>347</ele>
        <time>2022-06-05T03:09:57Z</time>
      </trkpt>
      <trkpt lat="47.07335" lon="6.19118">
        <ele>347</ele>
        <time>2022-06-05T03:10:12Z</time>
      </trkpt>
      <trkpt lat="47.07326" lon="6.19143">
        <ele>346</ele>
        <time>2022-06-05T03:10:28Z</time>
      </trkpt>
      <trkpt lat="47.07318" lon="6.19161">
        <ele>346</ele>
        <time>2022-06-05T03:10:39Z</time>
      </trkpt>
      <trkpt lat="47.07296" lon="6.19207">
        <ele>347</ele>
        <time>2022-06-05T03:11:10Z</time>
      </trkpt>
      <trkpt lat="47.07286" lon="6.19222">
        <ele>348</ele>
        <time>2022-06-05T03:11:22Z</time>
      </trkpt>
      <trkpt lat="47.07275" lon="6.19235">
        <ele>350</ele>
        <time>2022-06-05T03:11:33Z</time>
      </trkpt>
      <trkpt lat="47.07272" lon="6.19245">
        <ele>350</ele>
        <time>2022-06-05T03:11:39Z</time>
      </trkpt>
      <trkpt lat="47.07271" lon="6.19253">
        <ele>350</ele>
        <time>2022-06-05T03:11:43Z</time>
      </trkpt>
      <trkpt lat="47.07271" lon="6.19262">
        <ele>350</ele>
        <time>2022-06-05T03:11:48Z</time>
      </trkpt>
      <trkpt lat="47.07273" lon="6.19272">
        <ele>350</ele>
        <time>2022-06-05T03:11:54Z</time>
      </trkpt>
      <trkpt lat="47.07275" lon="6.19285">
        <ele>350</ele>
        <time>2022-06-05T03:12:01Z</time>
      </trkpt>
      <trkpt lat="47.07281" lon="6.19302">
        <ele>349</ele>
        <time>2022-06-05T03:12:12Z</time>
      </trkpt>
      <trkpt lat="47.07287" lon="6.19317">
        <ele>348</ele>
        <time>2022-06-05T03:12:21Z</time>
      </trkpt>
      <trkpt lat="47.073" lon="6.19336">
        <ele>346</ele>
        <time>2022-06-05T03:12:36Z</time>
      </trkpt>
      <trkpt lat="47.07303" lon="6.19344">
        <ele>345</ele>
        <time>2022-06-05T03:12:41Z</time>
      </trkpt>
      <trkpt lat="47.07304" lon="6.19351">
        <ele>345</ele>
        <time>2022-06-05T03:12:45Z</time>
      </trkpt>
      <trkpt lat="47.07299" lon="6.19378">
        <ele>346</ele>
        <time>2022-06-05T03:13:00Z</time>
      </trkpt>
      <trkpt lat="47.07296" lon="6.19401">
        <ele>347</ele>
        <time>2022-06-05T03:13:13Z</time>
      </trkpt>
      <trkpt lat="47.07282" lon="6.1949">
        <ele>351</ele>
        <time>2022-06-05T03:14:03Z</time>
      </trkpt>
      <trkpt lat="47.07267" lon="6.19603">
        <ele>350</ele>
        <time>2022-06-05T03:15:05Z</time>
      </trkpt>
      <trkpt lat="47.07257" lon="6.19626">
        <ele>350</ele>
        <time>2022-06-05T03:15:20Z</time>
      </trkpt>
      <trkpt lat="47.07224" lon="6.19887">
        <ele>349</ele>
        <time>2022-06-05T03:17:45Z</time>
      </trkpt>
      <trkpt lat="47.07191" lon="6.20119">
        <ele>351</ele>
        <time>2022-06-05T03:19:55Z</time>
      </trkpt>
      <trkpt lat="47.07182" lon="6.2016">
        <ele>351</ele>
        <time>2022-06-05T03:20:18Z</time>
      </trkpt>
      <trkpt lat="47.07174" lon="6.20188">
        <ele>350</ele>
        <time>2022-06-05T03:20:35Z</time>
      </trkpt>
      <trkpt lat="47.0716" lon="6.20235">
        <ele>350</ele>
        <time>2022-06-05T03:21:03Z</time>
      </trkpt>
      <trkpt lat="47.07158" lon="6.20257">
        <ele>349</ele>
        <time>2022-06-05T03:21:15Z</time>
      </trkpt>
      <trkpt lat="47.07159" lon="6.20264">
        <ele>348</ele>
        <time>2022-06-05T03:21:19Z</time>
      </trkpt>
      <trkpt lat="47.07147" lon="6.2029">
        <ele>349</ele>
        <time>2022-06-05T03:21:36Z</time>
      </trkpt>
      <trkpt lat="47.07136" lon="6.20312">
        <ele>350</ele>
        <time>2022-06-05T03:21:51Z</time>
      </trkpt>
      <trkpt lat="47.07126" lon="6.20327">
        <ele>350</ele>
        <time>2022-06-05T03:22:02Z</time>
      </trkpt>
      <trkpt lat="47.07118" lon="6.20335">
        <ele>350</ele>
        <time>2022-06-05T03:22:10Z</time>
      </trkpt>
      <trkpt lat="47.07108" lon="6.20344">
        <ele>351</ele>
        <time>2022-06-05T03:22:19Z</time>
      </trkpt>
      <trkpt lat="47.07094" lon="6.20355">
        <ele>351</ele>
        <time>2022-06-05T03:22:32Z</time>
      </trkpt>
      <trkpt lat="47.07075" lon="6.20372">
        <ele>351</ele>
        <time>2022-06-05T03:22:50Z</time>
      </trkpt>
      <trkpt lat="47.07056" lon="6.20387">
        <ele>349</ele>
        <time>2022-06-05T03:23:07Z</time>
      </trkpt>
      <trkpt lat="47.07027" lon="6.20406">
        <ele>347</ele>
        <time>2022-06-05T03:23:33Z</time>
      </trkpt>
      <trkpt lat="47.07" lon="6.20421">
        <ele>346</ele>
        <time>2022-06-05T03:23:56Z</time>
      </trkpt>
      <trkpt lat="47.06985" lon="6.2043">
        <ele>346</ele>
        <time>2022-06-05T03:24:09Z</time>
      </trkpt>
      <trkpt lat="47.06968" lon="6.20439">
        <ele>346</ele>
        <time>2022-06-05T03:24:23Z</time>
      </trkpt>
      <trkpt lat="47.06938" lon="6.20454">
        <ele>346</ele>
        <time>2022-06-05T03:24:49Z</time>
      </trkpt>
      <trkpt lat="47.06917" lon="6.20463">
        <ele>346</ele>
        <time>2022-06-05T03:25:06Z</time>
      </trkpt>
      <trkpt lat="47.06836" lon="6.20502">
        <ele>346</ele>
        <time>2022-06-05T03:26:15Z</time>
      </trkpt>
    </trkseg>
  </trk>
</gpx>